createdAt,value
2022-12-05T00:02:03.749Z,100278.69
2022-12-05T00:04:31.792Z,100280.88
2022-12-05T00:06:59.691Z,100285.59
2022-12-05T00:09:27.544Z,100283.19
2022-12-05T00:11:57.673Z,100284.09
2022-12-05T00:14:25.792Z,100286.28
2022-12-05T00:17:07.721Z,100279.59
2022-12-05T00:19:35.562Z,100275.47
2022-12-05T00:22:03.367Z,100281.31
2022-12-05T00:24:33.582Z,100286.34
2022-12-05T00:27:04.727Z,100291.94
2022-12-05T00:29:32.611Z,100304.34
2022-12-05T00:32:00.667Z,100301.81
2022-12-05T00:34:30.045Z,100304.06
2022-12-05T00:36:58.213Z,100292.69
2022-12-05T00:39:28.641Z,100300.28
2022-12-05T00:41:56.518Z,100308.84
2022-12-05T00:44:27.060Z,100313.16
2022-12-05T00:46:55.008Z,100310.69
2022-12-05T00:49:22.993Z,100309.19
2022-12-05T00:51:55.609Z,100295.88
2022-12-05T00:54:26.464Z,100320.47
2022-12-05T00:56:56.516Z,100315.72
2022-12-05T00:59:41.575Z,100321.41
2022-12-05T01:02:16.570Z,100317.75
2022-12-05T01:11:02.066Z,100336.09
2022-12-05T01:13:40.682Z,100344.19
2022-12-05T01:16:22.657Z,100344.88
2022-12-05T01:19:23.802Z,100354.00
2022-12-05T01:25:24.976Z,100357.44
2022-12-05T01:27:57.046Z,100352.38
2022-12-05T01:30:43.923Z,100344.78
2022-12-05T01:33:17.932Z,100346.16
2022-12-05T01:35:51.179Z,100331.66
2022-12-05T01:38:48.667Z,100348.72
2022-12-05T01:44:55.399Z,100354.06
2022-12-05T01:47:40.897Z,100360.28
2022-12-05T01:53:18.417Z,100351.88
2022-12-05T01:55:54.514Z,100359.28
2022-12-05T01:58:53.891Z,100358.28
2022-12-05T02:01:26.505Z,100355.06
2022-12-05T02:04:01.239Z,100356.44
2022-12-05T02:06:43.574Z,100359.41
2022-12-05T02:09:18.494Z,100345.84
2022-12-05T02:11:56.771Z,100362.59
2022-12-05T02:17:47.925Z,100360.59
2022-12-05T02:20:40.223Z,100364.28
2022-12-05T02:23:54.772Z,100362.56
2022-12-05T02:26:58.068Z,100365.56
2022-12-05T02:29:59.525Z,100377.13
2022-12-05T02:32:48.793Z,100372.78
2022-12-05T02:35:30.350Z,100375.41
2022-12-05T02:38:17.500Z,100378.69
2022-12-05T02:41:01.353Z,100369.91
2022-12-05T02:43:34.129Z,100365.38
2022-12-05T02:46:12.847Z,100365.09
2022-12-05T02:48:51.293Z,100356.03
2022-12-05T02:51:39.100Z,100367.56
2022-12-05T02:54:18.547Z,100367.19
2022-12-05T02:56:51.275Z,100355.13
2022-12-05T02:59:26.616Z,100359.31
2022-12-05T03:01:57.272Z,100362.53
2022-12-05T03:04:28.564Z,100358.50
2022-12-05T03:09:52.415Z,100361.84
2022-12-05T03:12:29.384Z,100369.91
2022-12-05T03:15:16.783Z,100372.09
2022-12-05T03:17:58.332Z,100377.44
2022-12-05T03:20:37.639Z,100373.78
2022-12-05T03:23:14.480Z,100375.41
2022-12-05T03:25:56.733Z,100372.94
2022-12-05T03:28:50.812Z,100374.44
2022-12-05T03:31:34.897Z,100378.34
2022-12-05T03:34:19.355Z,100386.00
2022-12-05T03:37:07.732Z,100384.81
2022-12-05T03:40:03.906Z,100382.47
2022-12-05T03:42:50.379Z,100392.38
2022-12-05T03:45:31.989Z,100388.19
2022-12-05T03:48:12.963Z,100395.72
2022-12-05T03:50:50.397Z,100406.59
2022-12-05T03:53:26.803Z,100402.56
2022-12-05T03:56:12.121Z,100408.47
2022-12-05T03:58:59.732Z,100416.72
2022-12-05T04:01:43.695Z,100416.06
2022-12-05T04:04:26.749Z,100406.28
2022-12-05T04:10:24.536Z,100412.28
2022-12-05T04:12:57.073Z,100344.16
2022-12-05T04:15:50.437Z,100342.97
2022-12-05T04:18:24.511Z,100409.81
2022-12-05T04:21:17.565Z,100393.09
2022-12-05T04:27:45.772Z,100393.28
2022-12-05T04:34:34.233Z,100425.38
2022-12-05T04:41:49.048Z,100420.03
2022-12-05T04:44:50.622Z,100373.03
2022-12-05T04:51:35.558Z,100430.47
2022-12-05T04:54:09.466Z,100434.81
2022-12-05T04:56:39.494Z,100440.31
2022-12-05T04:59:07.344Z,100436.97
2022-12-05T05:01:39.988Z,100433.75
2022-12-05T05:04:11.119Z,100438.19
2022-12-05T05:06:39.409Z,100439.16
2022-12-05T05:09:07.426Z,100453.31
2022-12-05T05:11:36.506Z,100414.69
2022-12-05T05:14:06.637Z,100448.91
2022-12-05T05:16:36.229Z,100447.94
2022-12-05T05:19:05.507Z,100452.25
2022-12-05T05:21:36.081Z,100460.63
2022-12-05T05:24:04.818Z,100453.63
2022-12-05T05:26:35.417Z,100442.34
2022-12-05T05:29:05.126Z,100450.69
2022-12-05T05:31:33.049Z,100451.25
2022-12-05T05:34:07.480Z,100460.28
2022-12-05T05:36:37.298Z,100454.44
2022-12-05T05:39:06.769Z,100465.69
2022-12-05T05:41:37.069Z,100466.38
2022-12-05T05:44:06.605Z,100459.78
2022-12-05T05:46:36.271Z,100460.44
2022-12-05T05:49:05.133Z,100473.66
2022-12-05T05:51:32.932Z,100457.81
2022-12-05T05:54:01.111Z,100456.31
2022-12-05T05:56:30.035Z,100445.41
2022-12-05T05:58:59.777Z,100470.97
2022-12-05T06:01:30.006Z,100460.28
2022-12-05T06:03:58.760Z,100453.28
2022-12-05T06:06:26.824Z,100463.13
2022-12-05T06:08:55.663Z,100449.78
2022-12-05T06:11:26.700Z,100452.69
2022-12-05T06:13:55.877Z,100453.88
2022-12-05T06:16:24.099Z,100447.31
2022-12-05T06:18:53.729Z,100453.81
2022-12-05T06:21:21.863Z,100446.47
2022-12-05T06:23:51.117Z,100446.16
2022-12-05T06:26:21.746Z,100465.06
2022-12-05T06:28:49.847Z,100471.28
2022-12-05T06:31:19.932Z,100462.00
2022-12-05T06:33:48.915Z,100475.63
2022-12-05T06:36:20.807Z,100469.63
2022-12-05T06:38:49.472Z,100488.75
2022-12-05T06:41:19.802Z,100458.00
2022-12-05T06:43:48.496Z,100489.25
2022-12-05T06:46:17.179Z,100493.97
2022-12-05T06:48:45.425Z,100494.16
2022-12-05T06:51:15.172Z,100497.22
2022-12-05T06:53:44.600Z,100500.22
2022-12-05T06:56:15.509Z,100488.41
2022-12-05T06:58:44.625Z,100497.88
2022-12-05T07:01:31.721Z,100495.63
2022-12-05T07:04:00.149Z,100478.41
2022-12-05T07:06:28.651Z,100497.69
2022-12-05T07:08:58.118Z,100496.25
2022-12-05T07:11:26.160Z,100517.66
2022-12-05T07:13:54.081Z,100513.38
2022-12-05T07:16:22.003Z,100520.47
2022-12-05T07:18:50.136Z,100487.44
2022-12-05T07:21:18.700Z,100502.34
2022-12-05T07:23:48.062Z,100507.69
2022-12-05T07:26:20.631Z,100522.22
2022-12-05T07:28:49.280Z,100509.41
2022-12-05T07:31:20.495Z,100527.47
2022-12-05T07:33:48.690Z,100510.50
2022-12-05T07:36:18.616Z,100529.69
2022-12-05T07:38:53.475Z,100533.34
2022-12-05T07:41:25.414Z,100537.72
2022-12-05T07:43:54.291Z,100540.09
2022-12-05T07:46:22.556Z,100543.50
2022-12-05T07:48:51.057Z,100554.78
2022-12-05T07:51:19.947Z,100549.28
2022-12-05T07:53:48.638Z,100557.56
2022-12-05T07:56:18.722Z,100554.69
2022-12-05T07:58:50.503Z,100542.53
2022-12-05T08:01:20.883Z,100561.09
2022-12-05T08:03:49.574Z,100560.91
2022-12-05T08:06:21.348Z,100560.06
2022-12-05T08:08:49.993Z,100541.94
2022-12-05T08:11:19.850Z,100559.75
2022-12-05T08:13:49.970Z,100546.34
2022-12-05T08:16:19.370Z,100567.59
2022-12-05T08:18:47.748Z,100574.88
2022-12-05T08:21:17.460Z,100569.28
2022-12-05T08:23:46.240Z,100556.03
2022-12-05T08:26:16.327Z,100572.53
2022-12-05T08:28:45.251Z,100574.06
2022-12-05T08:31:16.981Z,100575.81
2022-12-05T08:33:45.855Z,100570.81
2022-12-05T08:36:16.348Z,100583.00
2022-12-05T08:38:45.330Z,100575.50
2022-12-05T08:41:15.813Z,100580.66
2022-12-05T08:43:44.748Z,100581.16
2022-12-05T08:46:14.061Z,100601.22
2022-12-05T08:48:42.074Z,100604.84
2022-12-05T08:51:12.879Z,100616.19
2022-12-05T08:53:44.560Z,100611.66
2022-12-05T08:56:13.609Z,100612.59
2022-12-05T08:58:42.009Z,100617.81
2022-12-05T09:01:13.088Z,100607.97
2022-12-05T09:03:47.842Z,100617.22
2022-12-05T09:06:21.474Z,100616.69
2022-12-05T09:08:50.652Z,100606.63
2022-12-05T09:11:21.096Z,100618.47
2022-12-05T09:13:49.357Z,100600.81
2022-12-05T09:16:19.647Z,100628.22
2022-12-05T09:18:51.494Z,100630.66
2022-12-05T09:21:21.835Z,100621.00
2022-12-05T09:23:51.417Z,100625.28
2022-12-05T09:26:21.322Z,100622.25
2022-12-05T09:28:49.702Z,100632.25
2022-12-05T09:31:19.768Z,100638.41
2022-12-05T09:33:50.545Z,100641.97
2022-12-05T09:36:21.073Z,100628.38
2022-12-05T09:38:49.405Z,100638.34
2022-12-05T09:42:02.691Z,100612.09
2022-12-05T09:44:43.019Z,100600.59
2022-12-05T09:47:24.703Z,100642.09
2022-12-05T09:50:00.217Z,100640.88
2022-12-05T09:52:30.433Z,100634.03
2022-12-05T09:55:04.127Z,100642.44
2022-12-05T09:57:37.841Z,100639.19
2022-12-05T10:00:08.125Z,100647.56
2022-12-05T10:02:48.812Z,100636.16
2022-12-05T10:05:24.158Z,100633.28
2022-12-05T10:08:00.364Z,100639.97
2022-12-05T10:10:36.001Z,100635.81
2022-12-05T10:13:21.783Z,100626.69
2022-12-05T10:15:57.257Z,100587.66
2022-12-05T10:18:35.450Z,100632.00
2022-12-05T10:21:11.550Z,100635.16
2022-12-05T10:23:57.440Z,100635.41
2022-12-05T10:26:30.094Z,100627.72
2022-12-05T10:29:03.753Z,100616.88
2022-12-05T10:31:36.256Z,100623.25
2022-12-05T10:34:07.473Z,100620.56
2022-12-05T10:36:36.845Z,100606.78
2022-12-05T10:39:11.263Z,100625.25
2022-12-05T10:41:39.794Z,100607.13
2022-12-05T10:44:07.977Z,100609.41
2022-12-05T10:46:36.777Z,100621.84
2022-12-05T10:49:12.294Z,100613.00
2022-12-05T10:51:42.441Z,100598.16
2022-12-05T10:54:18.343Z,100611.78
2022-12-05T10:56:47.862Z,100607.53
2022-12-05T10:59:18.561Z,100605.06
2022-12-05T11:01:51.510Z,100592.44
2022-12-05T11:04:24.277Z,100600.75
2022-12-05T11:06:57.521Z,100607.41
2022-12-05T11:09:27.424Z,100604.16
2022-12-05T11:12:02.872Z,100603.34
2022-12-05T11:14:31.310Z,100590.88
2022-12-05T11:17:02.039Z,100602.69
2022-12-05T11:19:33.072Z,100602.66
2022-12-05T11:22:03.453Z,100608.25
2022-12-05T11:24:33.113Z,100613.78
2022-12-05T11:27:20.911Z,100610.94
2022-12-05T11:29:56.383Z,100609.06
2022-12-05T11:32:27.400Z,100609.06
2022-12-05T11:35:04.231Z,100614.63
2022-12-05T11:37:39.242Z,100606.03
2022-12-05T11:40:16.292Z,100612.09
2022-12-05T11:43:01.549Z,100614.63
2022-12-05T11:45:42.620Z,100604.16
2022-12-05T11:48:25.061Z,100604.09
2022-12-05T11:51:06.683Z,100586.31
2022-12-05T11:54:05.401Z,100611.16
2022-12-05T11:56:39.077Z,100611.19
2022-12-05T11:59:28.207Z,100614.78
2022-12-05T12:02:06.755Z,100616.31
2022-12-05T12:04:55.585Z,100615.56
2022-12-05T12:07:37.442Z,100611.94
2022-12-05T12:10:23.882Z,100604.16
2022-12-05T12:13:10.486Z,100606.13
2022-12-05T12:16:08.774Z,100568.28
2022-12-05T12:19:01.031Z,100597.97
2022-12-05T12:21:48.036Z,100577.59
2022-12-05T12:24:27.828Z,100621.75
2022-12-05T12:27:06.192Z,100612.50
2022-12-05T12:29:48.991Z,100606.56
2022-12-05T12:32:28.026Z,100595.97
2022-12-05T12:35:15.249Z,100609.13
2022-12-05T12:37:53.006Z,100608.53
2022-12-05T12:40:23.924Z,100618.34
2022-12-05T12:43:21.076Z,100584.97
2022-12-05T12:46:14.749Z,100577.06
2022-12-05T12:49:01.303Z,100612.56
2022-12-05T12:51:31.154Z,100608.13
2022-12-05T12:54:55.162Z,100612.28
2022-12-05T12:57:28.064Z,100610.66
2022-12-05T13:00:05.695Z,100616.72
2022-12-05T13:02:41.440Z,100609.31
2022-12-05T13:05:22.439Z,100601.59
2022-12-05T13:07:55.127Z,100614.88
2022-12-05T13:10:29.722Z,100617.69
2022-12-05T13:13:03.992Z,100605.38
2022-12-05T13:15:58.473Z,100603.94
2022-12-05T13:18:27.780Z,100603.94
2022-12-05T13:20:58.147Z,100587.88
2022-12-05T13:23:29.948Z,100611.50
2022-12-05T13:29:25.540Z,100560.09
2022-12-05T13:36:39.098Z,100607.66
2022-12-05T13:39:41.509Z,100584.06
2022-12-05T13:42:41.866Z,100604.94
2022-12-05T13:45:25.195Z,100620.63
2022-12-05T13:48:32.241Z,100596.19
2022-12-05T13:54:22.516Z,100624.94
2022-12-05T13:57:00.821Z,100621.84
2022-12-05T14:00:07.055Z,100624.94
2022-12-05T14:02:54.190Z,100612.16
2022-12-05T14:05:50.886Z,100555.94
2022-12-05T14:08:57.921Z,100599.06
2022-12-05T14:11:29.948Z,100606.84
2022-12-05T14:14:04.328Z,100597.97
2022-12-05T14:16:45.836Z,100622.44
2022-12-05T14:19:44.097Z,100637.09
2022-12-05T14:22:39.316Z,100611.34
2022-12-05T14:25:14.093Z,100603.59
2022-12-05T14:27:53.274Z,100604.38
2022-12-05T14:30:26.624Z,100625.06
2022-12-05T14:32:55.724Z,100625.13
2022-12-05T14:35:30.264Z,100600.31
2022-12-05T14:38:02.325Z,100595.69
2022-12-05T14:40:34.072Z,100624.97
2022-12-05T14:43:06.865Z,100607.97
2022-12-05T14:45:38.943Z,100638.34
2022-12-05T14:48:23.154Z,100604.97
2022-12-05T14:50:52.706Z,100633.34
2022-12-05T14:53:32.591Z,100610.16
2022-12-05T14:56:08.851Z,100633.78
2022-12-05T14:58:44.504Z,100634.09
2022-12-05T15:01:19.219Z,100636.03
2022-12-05T15:04:04.251Z,100632.66
2022-12-05T15:06:35.804Z,100637.56
2022-12-05T15:09:36.847Z,100633.03
2022-12-05T15:12:11.534Z,100631.19
2022-12-05T15:14:47.875Z,100640.75
2022-12-05T15:17:28.716Z,100636.03
2022-12-05T15:20:10.020Z,100617.16
2022-12-05T15:22:48.626Z,100642.00
2022-12-05T15:25:26.950Z,100639.94
2022-12-05T15:28:04.021Z,100589.41
2022-12-05T15:34:20.046Z,100627.00
2022-12-05T15:37:17.779Z,100580.81
2022-12-05T15:40:28.860Z,100634.50
2022-12-05T16:37:51.027Z,100604.41
2022-12-05T20:13:38.496Z,100656.97
2022-12-05T20:16:12.696Z,100669.06
2022-12-05T20:18:42.539Z,100693.19
2022-12-05T20:21:12.280Z,100686.00
2022-12-05T20:23:40.597Z,100692.69
2022-12-05T20:26:10.498Z,100692.22
2022-12-05T20:28:41.722Z,100688.03
2022-12-05T20:31:11.519Z,100695.59
2022-12-05T20:33:40.242Z,100700.84
2022-12-05T20:36:10.677Z,100677.91
2022-12-05T20:38:38.915Z,100680.91
2022-12-05T20:41:09.185Z,100676.00
2022-12-05T20:43:38.187Z,100688.69
2022-12-05T20:46:09.802Z,100701.72
2022-12-05T20:48:38.222Z,100695.69
2022-12-05T20:51:07.346Z,100698.75
2022-12-05T20:53:36.873Z,100672.53
2022-12-05T20:56:06.126Z,100692.66
2022-12-05T20:58:34.274Z,100689.47
2022-12-05T21:01:04.001Z,100698.97
2022-12-05T21:03:33.580Z,100696.91
2022-12-05T21:06:07.010Z,100698.81
2022-12-05T21:08:35.148Z,100683.44
2022-12-05T21:11:03.189Z,100690.84
2022-12-05T21:13:31.615Z,100684.22
2022-12-05T21:16:03.405Z,100688.88
2022-12-05T21:18:32.899Z,100696.22
2022-12-05T21:21:03.093Z,100700.09
2022-12-05T21:23:31.349Z,100699.91
2022-12-05T21:26:03.731Z,100697.69
2022-12-05T21:28:32.246Z,100697.56
2022-12-05T21:31:06.592Z,100690.38
2022-12-05T21:33:36.115Z,100697.22
2022-12-05T21:36:04.644Z,100684.31
2022-12-05T21:38:32.975Z,100690.31
2022-12-05T21:41:00.874Z,100693.78
2022-12-05T21:43:34.799Z,100690.88
2022-12-05T21:46:04.727Z,100691.47
2022-12-05T21:48:34.237Z,100691.00
2022-12-05T21:51:06.809Z,100689.41
2022-12-05T21:53:37.643Z,100675.72
2022-12-05T21:56:08.462Z,100663.91
2022-12-05T21:58:41.858Z,100679.00
2022-12-05T22:01:11.511Z,100688.59
2022-12-05T22:03:39.814Z,100696.00
2022-12-05T22:06:11.520Z,100692.22
2022-12-05T22:08:40.057Z,100690.94
2022-12-05T22:11:10.476Z,100683.38
2022-12-05T22:13:38.845Z,100691.84
2022-12-05T22:16:08.784Z,100691.94
2022-12-05T22:18:39.708Z,100696.13
2022-12-05T22:21:12.381Z,100685.53
2022-12-05T22:23:40.962Z,100690.19
2022-12-05T22:26:10.634Z,100675.28
2022-12-05T22:28:38.990Z,100691.34
2022-12-05T22:31:09.121Z,100691.22
2022-12-05T22:33:37.864Z,100689.47
2022-12-05T22:36:08.025Z,100686.84
2022-12-05T22:38:40.247Z,100689.19
2022-12-05T22:41:10.049Z,100689.84
2022-12-05T22:43:39.857Z,100692.06
2022-12-05T22:46:09.655Z,100688.47
2022-12-05T22:48:37.683Z,100662.91
2022-12-05T22:51:07.390Z,100682.97
2022-12-05T22:53:37.193Z,100686.56
2022-12-05T22:56:06.922Z,100685.59
2022-12-05T22:58:35.588Z,100681.91
2022-12-05T23:01:14.180Z,100674.47
2022-12-05T23:03:46.466Z,100653.38
2022-12-05T23:06:15.940Z,100674.28
2022-12-05T23:08:47.738Z,100674.75
2022-12-05T23:11:17.257Z,100684.47
2022-12-05T23:13:45.625Z,100657.59
2022-12-05T23:16:16.067Z,100673.97
2022-12-05T23:18:48.029Z,100662.97
2022-12-05T23:21:18.043Z,100654.53
2022-12-05T23:23:48.357Z,100663.91
2022-12-05T23:26:17.247Z,100659.28
2022-12-05T23:28:45.298Z,100670.03
2022-12-05T23:31:14.020Z,100657.75
2022-12-05T23:33:42.703Z,100650.69
2022-12-05T23:36:12.565Z,100665.03
2022-12-05T23:38:43.633Z,100648.25
2022-12-05T23:41:17.042Z,100664.19
2022-12-05T23:43:49.042Z,100657.50
2022-12-05T23:46:19.489Z,100672.41
2022-12-05T23:48:48.506Z,100665.06
2022-12-05T23:51:19.208Z,100656.97
2022-12-05T23:53:49.167Z,100656.50
2022-12-05T23:56:20.806Z,100655.66
2022-12-05T23:58:48.883Z,100667.69
